createdAt,value
2017-12-13T00:00:57.433Z,54.80
2017-12-13T00:03:26.234Z,54.90
2017-12-13T00:05:55.025Z,54.90
2017-12-13T00:08:23.814Z,54.90
2017-12-13T00:10:51.847Z,54.90
2017-12-13T00:13:19.934Z,54.90
2017-12-13T00:15:47.970Z,55.50
2017-12-13T00:18:16.024Z,54.80
2017-12-13T00:20:44.018Z,54.80
2017-12-13T00:23:12.062Z,54.80
2017-12-13T00:25:40.049Z,54.80
2017-12-13T00:28:08.026Z,54.70
2017-12-13T00:30:36.082Z,54.70
2017-12-13T00:33:04.085Z,54.70
2017-12-13T00:35:32.100Z,54.70
2017-12-13T00:38:00.161Z,54.70
2017-12-13T00:40:28.900Z,54.80
2017-12-13T00:42:56.915Z,54.80
2017-12-13T00:45:25.698Z,54.60
2017-12-13T00:47:54.402Z,54.50
2017-12-13T00:50:23.169Z,54.50
2017-12-13T00:52:51.997Z,54.60
2017-12-13T00:55:20.018Z,54.60
2017-12-13T00:57:48.077Z,54.50
2017-12-13T01:00:16.102Z,54.50
2017-12-13T01:02:44.084Z,54.50
2017-12-13T01:05:12.094Z,54.40
2017-12-13T01:07:40.149Z,54.50
2017-12-13T01:10:08.138Z,54.50
2017-12-13T01:12:36.146Z,54.50
2017-12-13T01:15:04.287Z,54.50
2017-12-13T01:17:33.072Z,54.60
2017-12-13T01:20:01.083Z,54.60
2017-12-13T01:22:29.096Z,54.60
2017-12-13T01:24:57.105Z,54.60
2017-12-13T01:27:25.861Z,54.70
2017-12-13T01:29:53.940Z,54.70
2017-12-13T01:32:21.962Z,54.70
2017-12-13T01:34:49.997Z,54.80
2017-12-13T01:37:18.777Z,54.70
2017-12-13T01:39:46.792Z,54.80
2017-12-13T01:42:14.794Z,54.80
2017-12-13T01:44:42.816Z,54.80
2017-12-13T01:47:10.849Z,54.80
2017-12-13T01:49:38.847Z,54.80
2017-12-13T01:52:07.642Z,54.80
2017-12-13T01:54:35.709Z,54.80
2017-12-13T01:57:04.509Z,54.80
2017-12-13T01:59:32.510Z,54.90
2017-12-13T02:02:00.568Z,54.80
2017-12-13T02:04:28.608Z,54.80
2017-12-13T02:06:57.397Z,54.90
2017-12-13T02:09:26.216Z,54.90
2017-12-13T02:11:54.225Z,54.80
2017-12-13T02:14:22.309Z,54.90
2017-12-13T02:16:51.157Z,54.90
2017-12-13T02:19:19.124Z,54.90
2017-12-13T02:21:47.204Z,54.90
2017-12-13T02:24:15.320Z,54.90
2017-12-13T02:26:44.083Z,54.90
2017-12-13T02:29:12.085Z,54.90
2017-12-13T02:31:40.890Z,54.90
2017-12-13T02:34:08.922Z,54.90
2017-12-13T02:36:36.931Z,54.90
2017-12-13T02:39:05.031Z,55.40
2017-12-13T02:41:33.026Z,54.90
2017-12-13T02:44:01.034Z,54.90
2017-12-13T02:46:29.805Z,54.90
2017-12-13T02:48:58.565Z,54.90
2017-12-13T02:51:26.616Z,54.90
2017-12-13T02:53:54.715Z,54.90
2017-12-13T02:56:22.808Z,55.00
2017-12-13T02:58:50.941Z,55.00
2017-12-13T03:01:19.005Z,55.00
2017-12-13T03:03:47.856Z,55.00
2017-12-13T03:06:16.656Z,55.00
2017-12-13T03:08:44.718Z,55.00
2017-12-13T03:11:13.568Z,55.10
2017-12-13T03:13:42.452Z,55.10
2017-12-13T03:16:10.480Z,55.10
2017-12-13T03:18:38.477Z,55.10
2017-12-13T03:21:06.545Z,55.10
2017-12-13T03:23:34.562Z,55.10
2017-12-13T03:26:02.564Z,55.10
2017-12-13T03:28:30.570Z,55.10
2017-12-13T03:30:58.606Z,55.10
2017-12-13T03:33:26.661Z,55.10
2017-12-13T03:35:55.428Z,55.10
2017-12-13T03:38:23.481Z,55.10
2017-12-13T03:40:51.493Z,55.00
2017-12-13T03:43:20.273Z,55.10
2017-12-13T03:45:49.058Z,55.10
2017-12-13T03:48:17.830Z,55.10
2017-12-13T03:50:45.719Z,55.10
2017-12-13T03:53:14.540Z,55.10
2017-12-13T03:55:42.550Z,55.10
2017-12-13T03:58:10.554Z,55.10
2017-12-13T04:00:39.356Z,55.80
2017-12-13T04:03:07.402Z,55.20
2017-12-13T04:05:35.384Z,55.10
2017-12-13T04:08:04.189Z,55.10
2017-12-13T04:10:32.200Z,55.10
2017-12-13T04:13:00.236Z,55.00
2017-12-13T04:15:28.245Z,55.10
2017-12-13T04:17:56.268Z,55.10
2017-12-13T04:20:24.291Z,55.10
2017-12-13T04:22:52.351Z,55.00
2017-12-13T04:25:20.343Z,55.00
2017-12-13T04:27:48.337Z,55.00
2017-12-13T04:30:17.151Z,55.00
2017-12-13T04:32:45.384Z,55.00
2017-12-13T04:35:13.430Z,55.00
2017-12-13T04:37:41.430Z,54.90
2017-12-13T04:40:09.430Z,54.90
2017-12-13T04:42:37.438Z,54.80
2017-12-13T04:45:05.464Z,54.80
2017-12-13T04:47:34.239Z,54.70
2017-12-13T04:50:03.004Z,54.70
2017-12-13T04:52:31.036Z,54.70
2017-12-13T04:54:59.047Z,54.50
2017-12-13T04:57:27.037Z,54.60
2017-12-13T04:59:55.809Z,54.50
2017-12-13T05:02:23.840Z,54.60
2017-12-13T05:04:51.841Z,54.50
2017-12-13T05:07:19.841Z,54.40
2017-12-13T05:09:48.686Z,54.40
2017-12-13T05:12:16.711Z,54.40
2017-12-13T05:14:45.495Z,54.30
2017-12-13T05:17:14.381Z,54.30
2017-12-13T05:19:43.233Z,54.30
2017-12-13T05:22:11.142Z,54.30
2017-12-13T05:24:39.911Z,54.30
2017-12-13T05:27:07.977Z,54.20
2017-12-13T05:29:36.024Z,54.20
2017-12-13T05:32:04.044Z,54.20
2017-12-13T05:34:32.832Z,54.20
2017-12-13T05:37:01.620Z,54.30
2017-12-13T05:39:30.382Z,54.20
2017-12-13T05:41:58.404Z,54.20
2017-12-13T05:44:26.392Z,54.30
2017-12-13T05:46:54.398Z,54.10
2017-12-13T05:49:22.381Z,54.10
2017-12-13T05:51:51.149Z,54.10
2017-12-13T05:54:19.179Z,54.10
2017-12-13T05:56:47.153Z,54.10
2017-12-13T05:59:15.161Z,54.00
2017-12-13T06:01:43.197Z,54.00
2017-12-13T06:04:11.207Z,54.10
2017-12-13T06:06:39.256Z,54.00
2017-12-13T06:09:07.254Z,54.00
2017-12-13T06:11:35.250Z,54.00
2017-12-13T06:14:04.064Z,53.90
2017-12-13T06:16:32.082Z,53.90
2017-12-13T06:19:00.090Z,53.90
2017-12-13T06:21:28.142Z,53.90
2017-12-13T06:23:56.913Z,53.90
2017-12-13T06:26:24.925Z,53.90
2017-12-13T06:28:52.944Z,53.90
2017-12-13T06:31:20.926Z,53.90
2017-12-13T06:33:49.689Z,53.80
2017-12-13T06:36:17.726Z,53.90
2017-12-13T06:38:45.718Z,53.90
2017-12-13T06:41:13.729Z,53.80
2017-12-13T06:43:42.503Z,53.80
2017-12-13T06:46:10.517Z,53.80
2017-12-13T06:48:38.518Z,53.80
2017-12-13T06:51:06.549Z,53.80
2017-12-13T06:53:34.423Z,53.80
2017-12-13T06:56:02.410Z,53.80
2017-12-13T06:58:30.406Z,54.00
2017-12-13T07:00:58.432Z,54.00
2017-12-13T07:03:26.478Z,54.00
2017-12-13T07:05:55.299Z,53.80
2017-12-13T07:08:23.290Z,53.90
2017-12-13T07:10:51.304Z,53.90
2017-12-13T07:13:19.293Z,54.00
2017-12-13T07:15:48.098Z,54.10
2017-12-13T07:18:16.129Z,54.10
2017-12-13T07:20:44.168Z,54.20
2017-12-13T07:23:12.594Z,54.30
2017-12-13T07:25:41.377Z,54.30
2017-12-13T07:28:10.140Z,54.20
2017-12-13T07:30:38.192Z,54.30
2017-12-13T07:33:06.255Z,54.30
2017-12-13T07:35:34.305Z,54.50
2017-12-13T07:38:02.370Z,54.50
2017-12-13T07:40:30.414Z,54.40
2017-12-13T07:42:58.427Z,54.50
2017-12-13T07:45:26.423Z,54.50
2017-12-13T07:47:54.444Z,54.60
2017-12-13T07:50:23.227Z,54.70
2017-12-13T07:52:51.993Z,54.70
2017-12-13T07:55:20.057Z,54.70
2017-12-13T07:57:48.086Z,54.70
2017-12-13T08:00:16.153Z,54.60
2017-12-13T08:02:44.197Z,54.60
2017-12-13T08:05:12.954Z,54.70
2017-12-13T08:07:40.987Z,54.70
2017-12-13T08:10:09.010Z,54.60
2017-12-13T08:12:37.055Z,54.50
2017-12-13T08:15:14.889Z,54.50
2017-12-13T08:17:55.115Z,54.30
2017-12-13T08:20:30.472Z,54.30
2017-12-13T08:23:11.090Z,54.30
2017-12-13T08:25:48.727Z,54.20
2017-12-13T08:28:29.877Z,54.40
2017-12-13T08:31:10.765Z,54.30
2017-12-13T08:33:49.861Z,54.30
2017-12-13T08:36:30.106Z,54.20
2017-12-13T08:39:13.070Z,54.20
2017-12-13T08:41:49.506Z,53.20
2017-12-13T08:44:21.672Z,53.20
2017-12-13T08:47:00.497Z,53.10
2017-12-13T08:49:38.700Z,53.20
2017-12-13T08:52:19.095Z,53.00
2017-12-13T08:54:59.483Z,52.90
2017-12-13T08:57:39.881Z,52.90
2017-12-13T09:00:17.403Z,52.80
2017-12-13T09:02:57.271Z,52.60
2017-12-13T09:05:29.575Z,52.60
2017-12-13T09:08:09.584Z,52.50
2017-12-13T09:10:48.996Z,52.50
2017-12-13T09:13:28.753Z,52.40
2017-12-13T09:16:05.504Z,52.30
2017-12-13T09:18:47.000Z,52.20
2017-12-13T09:21:25.915Z,52.20
2017-12-13T09:24:05.539Z,52.00
2017-12-13T09:26:45.624Z,52.00
2017-12-13T09:29:26.128Z,51.80
2017-12-13T09:32:05.373Z,51.70
2017-12-13T09:34:45.634Z,51.60
2017-12-13T09:37:22.331Z,51.70
2017-12-13T09:40:01.193Z,51.40
2017-12-13T09:42:39.879Z,51.30
2017-12-13T09:45:19.313Z,51.10
2017-12-13T09:47:59.865Z,51.20
2017-12-13T09:50:39.411Z,51.10
2017-12-13T09:53:19.882Z,51.00
2017-12-13T09:55:57.036Z,51.00
2017-12-13T09:58:38.247Z,51.00
2017-12-13T10:01:19.626Z,50.60
2017-12-13T10:04:00.740Z,50.50
2017-12-13T10:06:41.120Z,50.40
2017-12-13T10:09:19.984Z,50.50
2017-12-13T10:11:56.567Z,50.40
2017-12-13T10:14:37.013Z,50.30
2017-12-13T10:17:17.012Z,50.20
2017-12-13T10:19:59.762Z,50.10
2017-12-13T10:22:45.958Z,49.80
2017-12-13T10:25:26.281Z,49.60
2017-12-13T10:28:06.402Z,49.60
2017-12-13T10:30:47.128Z,49.50
2017-12-13T10:33:26.950Z,49.40
2017-12-13T10:36:07.634Z,49.30
2017-12-13T10:38:46.067Z,49.20
2017-12-13T10:41:21.504Z,49.10
2017-12-13T10:44:02.102Z,48.90
2017-12-13T10:46:40.699Z,48.80
2017-12-13T10:49:20.888Z,48.70
2017-12-13T10:52:00.798Z,48.40
2017-12-13T10:54:40.933Z,48.40
2017-12-13T10:57:23.226Z,48.40
2017-12-13T11:00:06.698Z,48.30
2017-12-13T11:02:46.328Z,48.10
2017-12-13T11:05:26.532Z,48.00
2017-12-13T11:08:03.358Z,47.80
2017-12-13T11:10:43.586Z,47.80
2017-12-13T11:13:22.550Z,47.70
2017-12-13T11:16:02.795Z,47.70
2017-12-13T11:18:43.461Z,47.60
2017-12-13T11:21:24.213Z,47.50
2017-12-13T11:24:03.913Z,47.40
2017-12-13T11:26:43.889Z,47.40
2017-12-13T11:29:26.464Z,47.20
2017-12-13T11:32:05.928Z,46.90
2017-12-13T11:34:46.917Z,46.60
2017-12-13T11:37:26.030Z,46.60
2017-12-13T11:40:07.219Z,46.40
2017-12-13T11:42:47.765Z,46.30
2017-12-13T11:45:28.476Z,46.30
2017-12-13T11:48:08.596Z,46.20
2017-12-13T11:50:49.480Z,46.20
2017-12-13T11:53:30.552Z,46.10
2017-12-13T11:56:10.336Z,46.10
2017-12-13T11:58:50.496Z,46.10
2017-12-13T12:01:31.004Z,46.10
2017-12-13T12:04:11.356Z,46.10
2017-12-13T12:06:52.158Z,46.10
2017-12-13T12:09:30.468Z,46.20
2017-12-13T12:12:10.725Z,46.20
2017-12-13T12:14:51.872Z,46.20
2017-12-13T12:17:32.433Z,46.20
2017-12-13T12:20:12.378Z,46.20
2017-12-13T12:22:50.250Z,46.30
2017-12-13T12:25:30.101Z,46.30
2017-12-13T12:28:10.757Z,46.30
2017-12-13T12:30:51.173Z,46.50
2017-12-13T12:33:31.738Z,46.40
2017-12-13T12:36:12.396Z,46.50
2017-12-13T12:38:49.859Z,46.50
2017-12-13T12:41:26.861Z,46.40
2017-12-13T12:44:07.111Z,46.40
2017-12-13T12:46:46.487Z,46.50
2017-12-13T12:49:26.529Z,46.50
2017-12-13T12:52:05.675Z,46.60
2017-12-13T12:54:47.124Z,46.50
2017-12-13T12:57:27.229Z,46.70
2017-12-13T13:00:05.373Z,46.60
2017-12-13T13:02:45.099Z,46.70
2017-12-13T13:05:23.100Z,46.80
2017-12-13T13:08:03.059Z,46.70
2017-12-13T13:10:33.134Z,46.80
2017-12-13T13:13:04.584Z,46.80
2017-12-13T13:15:35.356Z,46.70
2017-12-13T13:18:05.368Z,46.80
2017-12-13T13:20:35.143Z,46.80
2017-12-13T13:23:04.871Z,46.80
2017-12-13T13:25:37.267Z,46.90
2017-12-13T13:28:08.384Z,46.90
2017-12-13T13:30:38.108Z,47.00
2017-12-13T13:33:07.710Z,47.10
2017-12-13T13:35:39.916Z,47.20
2017-12-13T13:38:11.312Z,47.30
2017-12-13T13:40:42.971Z,47.20
2017-12-13T13:43:14.792Z,47.20
2017-12-13T13:45:46.942Z,47.20
2017-12-13T13:48:18.832Z,47.30
2017-12-13T13:53:27.187Z,47.40
2017-12-13T13:55:57.137Z,47.50
2017-12-13T13:58:27.384Z,47.40
2017-12-13T14:01:00.502Z,47.40
2017-12-13T14:03:30.912Z,47.50
2017-12-13T14:06:02.992Z,47.50
2017-12-13T14:08:33.153Z,47.60
2017-12-13T14:11:02.798Z,47.60
2017-12-13T14:13:32.954Z,47.60
2017-12-13T14:16:04.027Z,47.70
2017-12-13T14:18:35.125Z,47.70
2017-12-13T14:21:04.776Z,47.80
2017-12-13T14:23:37.581Z,48.00
2017-12-13T14:26:07.218Z,47.90
2017-12-13T14:28:42.771Z,48.00
2017-12-13T14:31:12.608Z,48.10
2017-12-13T14:33:42.098Z,48.20
2017-12-13T14:36:11.817Z,48.10
2017-12-13T14:38:43.189Z,48.10
2017-12-13T14:41:15.088Z,48.20
2017-12-13T14:43:46.031Z,48.20
2017-12-13T14:46:17.796Z,48.20
2017-12-13T14:48:49.685Z,48.30
2017-12-13T14:51:22.134Z,48.40
2017-12-13T14:53:52.596Z,48.30
2017-12-13T14:56:22.912Z,48.50
2017-12-13T14:58:52.543Z,48.50
2017-12-13T15:01:22.386Z,48.60
2017-12-13T15:03:53.343Z,49.30
2017-12-13T15:06:23.884Z,48.70
2017-12-13T15:08:53.472Z,48.70
2017-12-13T15:11:24.075Z,48.70
2017-12-13T15:13:54.516Z,48.60
2017-12-13T15:16:25.761Z,48.60
2017-12-13T15:19:00.315Z,48.70
2017-12-13T15:21:28.352Z,48.60
2017-12-13T15:23:56.369Z,48.70
2017-12-13T15:26:24.430Z,48.60
2017-12-13T15:28:52.465Z,48.60
2017-12-13T15:31:20.482Z,48.60
2017-12-13T15:33:53.667Z,48.70
2017-12-13T15:36:31.892Z,48.70
2017-12-13T15:39:13.603Z,48.60
2017-12-13T15:41:53.912Z,48.70
2017-12-13T15:44:35.320Z,48.70
2017-12-13T15:47:15.748Z,48.70
2017-12-13T15:49:56.459Z,48.80
2017-12-13T15:52:37.322Z,48.80
2017-12-13T15:55:18.829Z,48.90
2017-12-13T15:58:00.412Z,48.80
2017-12-13T16:00:41.877Z,49.00
2017-12-13T16:03:23.154Z,48.90
2017-12-13T16:06:03.677Z,49.00
2017-12-13T16:08:44.809Z,49.00
2017-12-13T16:11:25.810Z,48.90
2017-12-13T16:14:04.010Z,48.90
2017-12-13T16:16:43.210Z,49.00
2017-12-13T16:19:22.259Z,49.20
2017-12-13T16:22:01.264Z,49.40
2017-12-13T16:24:40.097Z,49.40
2017-12-13T16:27:18.884Z,49.40
2017-12-13T16:29:58.436Z,49.60
2017-12-13T16:32:37.921Z,49.60
2017-12-13T16:35:17.436Z,49.70
2017-12-13T16:37:55.564Z,49.70
2017-12-13T16:40:35.027Z,49.70
2017-12-13T16:43:14.966Z,49.70
2017-12-13T16:45:53.938Z,49.80
2017-12-13T16:48:33.947Z,49.80
2017-12-13T16:51:12.846Z,49.70
2017-12-13T16:53:50.772Z,49.70
2017-12-13T16:56:29.816Z,49.80
2017-12-13T16:59:09.290Z,49.80
2017-12-13T17:01:47.223Z,50.00
2017-12-13T17:04:26.151Z,50.00
2017-12-13T17:07:05.311Z,50.00
2017-12-13T17:09:42.560Z,50.00
2017-12-13T17:12:21.657Z,50.00
2017-12-13T17:15:00.751Z,50.00
2017-12-13T17:17:40.003Z,50.00
2017-12-13T17:20:19.188Z,50.10
2017-12-13T17:22:58.332Z,50.10
2017-12-13T17:25:38.329Z,50.30
2017-12-13T17:28:17.467Z,50.30
2017-12-13T17:30:56.294Z,50.30
2017-12-13T17:33:34.743Z,50.40
2017-12-13T17:36:14.733Z,50.50
2017-12-13T17:38:54.069Z,50.50
2017-12-13T17:41:33.020Z,50.50
2017-12-13T17:44:12.429Z,50.50
2017-12-13T17:46:51.591Z,50.50
2017-12-13T17:49:30.151Z,50.50
2017-12-13T17:52:09.888Z,50.60
2017-12-13T17:54:48.004Z,50.60
2017-12-13T17:57:26.954Z,50.70
2017-12-13T18:00:06.242Z,50.60
2017-12-13T18:02:44.639Z,50.60
2017-12-13T18:05:23.003Z,50.70
2017-12-13T18:08:02.804Z,50.80
2017-12-13T18:10:41.433Z,50.80
2017-12-13T18:13:19.481Z,50.90
2017-12-13T18:15:57.633Z,50.90
2017-12-13T18:18:36.477Z,50.90
2017-12-13T18:21:13.042Z,50.90
2017-12-13T18:23:47.253Z,50.90
2017-12-13T18:26:26.067Z,50.90
2017-12-13T18:29:05.762Z,51.00
2017-12-13T18:31:44.995Z,51.00
2017-12-13T18:34:25.201Z,51.00
2017-12-13T18:37:04.462Z,51.00
2017-12-13T18:39:43.347Z,51.00
2017-12-13T18:42:23.230Z,50.90
2017-12-13T18:45:02.296Z,50.90
2017-12-13T18:47:40.233Z,51.80
2017-12-13T18:50:17.675Z,51.70
2017-12-13T18:52:56.563Z,51.80
2017-12-13T18:55:35.151Z,51.80
2017-12-13T18:58:14.850Z,51.70
2017-12-13T19:00:54.862Z,51.80
2017-12-13T19:03:33.794Z,51.70
2017-12-13T19:06:12.491Z,51.70
2017-12-13T19:08:51.136Z,51.70
2017-12-13T19:11:25.736Z,52.30
2017-12-13T19:14:04.907Z,51.80
2017-12-13T19:16:43.838Z,51.80
2017-12-13T19:19:22.482Z,51.80
2017-12-13T19:22:02.597Z,51.70
2017-12-13T19:24:41.082Z,51.70
2017-12-13T19:27:19.803Z,51.70
2017-12-13T19:29:58.411Z,51.70
2017-12-13T19:32:36.426Z,51.80
2017-12-13T19:35:15.722Z,51.90
2017-12-13T19:37:56.692Z,51.80
2017-12-13T19:40:34.927Z,51.80
2017-12-13T19:43:14.299Z,51.90
2017-12-13T19:45:53.625Z,51.90
2017-12-13T19:48:32.543Z,51.90
2017-12-13T19:51:12.080Z,52.50
2017-12-13T19:53:51.035Z,51.90
2017-12-13T19:56:29.995Z,51.90
2017-12-13T19:59:07.453Z,51.90
2017-12-13T20:01:45.642Z,52.00
2017-12-13T20:04:24.860Z,52.00
2017-12-13T20:07:04.080Z,52.10
2017-12-13T20:09:44.355Z,52.10
2017-12-13T20:12:24.075Z,52.10
2017-12-13T20:15:08.755Z,52.20
2017-12-13T20:17:48.137Z,52.20
2017-12-13T20:20:27.526Z,52.20
2017-12-13T20:23:06.301Z,52.20
2017-12-13T20:25:46.008Z,52.20
2017-12-13T20:28:24.680Z,52.20
2017-12-13T20:31:02.438Z,52.20
2017-12-13T20:33:41.296Z,52.30
2017-12-13T20:36:21.029Z,52.90
2017-12-13T20:39:00.976Z,52.40
2017-12-13T20:41:40.554Z,52.40
2017-12-13T20:44:11.252Z,52.40
2017-12-13T20:46:46.209Z,52.30
2017-12-13T20:49:24.799Z,52.40
2017-12-13T20:52:03.430Z,52.40
2017-12-13T20:54:44.839Z,52.40
2017-12-13T20:57:23.438Z,52.50
2017-12-13T21:00:00.236Z,52.60
2017-12-13T21:02:39.442Z,52.60
2017-12-13T21:05:18.831Z,52.60
2017-12-13T21:07:57.973Z,52.50
2017-12-13T21:10:36.491Z,52.50
2017-12-13T21:13:14.732Z,52.50
2017-12-13T21:15:47.120Z,52.60
2017-12-13T21:18:19.385Z,52.70
2017-12-13T21:20:51.496Z,52.80
2017-12-13T21:23:23.650Z,52.80
2017-12-13T21:25:56.424Z,52.80
2017-12-13T21:28:29.592Z,53.30
2017-12-13T21:31:01.682Z,52.70
2017-12-13T21:33:33.626Z,52.70
2017-12-13T21:36:06.347Z,52.70
2017-12-13T21:38:39.840Z,52.80
2017-12-13T21:41:13.664Z,52.80
2017-12-13T21:43:45.762Z,52.80
2017-12-13T21:46:18.390Z,52.80
2017-12-13T21:48:50.122Z,52.90
2017-12-13T21:51:18.117Z,53.00
2017-12-13T21:53:46.940Z,53.10
2017-12-13T21:56:14.989Z,53.10
2017-12-13T21:58:43.757Z,53.10
2017-12-13T22:01:12.572Z,53.20
2017-12-13T22:03:40.588Z,53.20
2017-12-13T22:06:08.594Z,53.20
2017-12-13T22:08:37.416Z,53.20
2017-12-13T22:11:05.421Z,53.20
2017-12-13T22:13:33.457Z,53.20
2017-12-13T22:16:01.453Z,53.20
2017-12-13T22:18:29.445Z,53.20
2017-12-13T22:20:57.434Z,53.30
2017-12-13T22:23:26.205Z,53.50
2017-12-13T22:25:54.216Z,53.40
2017-12-13T22:28:22.202Z,53.30
2017-12-13T22:30:50.238Z,53.10
2017-12-13T22:33:19.012Z,53.00
2017-12-13T22:35:47.060Z,53.00
2017-12-13T22:38:15.086Z,52.90
2017-12-13T22:40:43.148Z,52.90
2017-12-13T22:43:11.944Z,53.00
2017-12-13T22:45:39.976Z,53.00
2017-12-13T22:48:07.990Z,53.10
2017-12-13T22:50:35.974Z,53.70
2017-12-13T22:53:03.981Z,53.20
2017-12-13T22:55:32.030Z,53.10
2017-12-13T22:58:00.016Z,53.10
2017-12-13T23:00:40.043Z,53.10
2017-12-13T23:03:08.146Z,53.10
2017-12-13T23:05:36.247Z,53.10
2017-12-13T23:08:05.031Z,53.20
2017-12-13T23:10:33.844Z,53.30
2017-12-13T23:13:01.872Z,53.30
2017-12-13T23:15:29.953Z,53.30
2017-12-13T23:17:58.066Z,53.30
2017-12-13T23:20:26.063Z,53.20
2017-12-13T23:22:54.113Z,53.30
2017-12-13T23:25:22.266Z,53.40
2017-12-13T23:27:50.337Z,53.50
2017-12-13T23:30:18.490Z,53.50
2017-12-13T23:32:46.548Z,53.40
2017-12-13T23:35:14.605Z,53.40
2017-12-13T23:37:42.614Z,53.50
2017-12-13T23:40:11.404Z,53.60
2017-12-13T23:42:40.170Z,53.60
2017-12-13T23:45:08.197Z,53.60
2017-12-13T23:47:36.201Z,53.60
2017-12-13T23:50:04.277Z,53.60
2017-12-13T23:52:32.278Z,53.50
2017-12-13T23:55:01.033Z,53.40
2017-12-13T23:57:29.041Z,53.50
2017-12-13T23:59:57.824Z,53.60
